createdAt,value
2022-09-24T00:03:33.747Z,35.8
2022-09-24T00:08:33.719Z,40.6
2022-09-24T00:18:33.467Z,38.4
2022-09-24T00:23:33.509Z,39.1
2022-09-24T00:28:33.882Z,38.5
2022-09-24T00:33:33.892Z,40.7
2022-09-24T00:38:33.281Z,40.7
2022-09-24T00:43:33.655Z,38.6
2022-09-24T00:48:33.923Z,42.8
2022-09-24T00:53:33.358Z,39.2
2022-09-24T00:58:33.739Z,40.1
2022-09-24T01:03:33.755Z,41.7
2022-09-24T01:08:33.333Z,52.7
2022-09-24T01:13:33.305Z,48.0
2022-09-24T01:18:33.557Z,58.3
2022-09-24T01:23:33.426Z,51.5
2022-09-24T01:28:33.608Z,48.5
2022-09-24T01:38:33.429Z,47.2
2022-09-24T01:43:33.150Z,45.2
2022-09-24T01:48:33.806Z,52.5
2022-09-24T01:53:33.655Z,43.5
2022-09-24T01:58:33.230Z,38.7
2022-09-24T02:03:33.536Z,46.4
2022-09-24T02:08:33.312Z,42.8
2022-09-24T02:13:33.252Z,38.0
2022-09-24T02:18:33.136Z,40.2
2022-09-24T02:23:33.463Z,38.6
2022-09-24T02:28:33.296Z,34.8
2022-09-24T02:33:33.424Z,32.7
2022-09-24T02:38:33.512Z,41.2
2022-09-24T02:43:33.925Z,35.7
2022-09-24T02:48:33.044Z,34.3
2022-09-24T02:53:33.426Z,37.1
2022-09-24T02:58:33.466Z,35.0
2022-09-24T03:03:33.434Z,31.7
2022-09-24T03:08:33.137Z,34.4
2022-09-24T03:13:33.127Z,33.2
2022-09-24T03:18:33.301Z,34.6
2022-09-24T03:23:33.393Z,34.1
2022-09-24T03:28:32.988Z,34.0
2022-09-24T03:33:33.109Z,35.0
2022-09-24T03:38:33.298Z,41.3
2022-09-24T03:43:32.981Z,35.5
2022-09-24T03:48:33.314Z,38.9
2022-09-24T03:53:33.052Z,42.8
2022-09-24T03:58:33.038Z,41.9
2022-09-24T04:03:33.667Z,39.8
2022-09-24T04:08:33.054Z,41.9
2022-09-24T04:13:33.070Z,58.3
2022-09-24T04:18:38.346Z,75.9
2022-09-24T04:23:32.935Z,53.9
2022-09-24T04:28:33.377Z,54.4
2022-09-24T04:33:33.116Z,43.3
2022-09-24T04:38:32.940Z,44.4
2022-09-24T04:43:33.577Z,41.0
2022-09-24T04:48:33.117Z,52.5
2022-09-24T04:53:32.954Z,48.7
2022-09-24T04:58:32.825Z,58.1
2022-09-24T05:03:32.826Z,81.0
2022-09-24T05:08:32.843Z,94.4
2022-09-24T05:13:32.851Z,43.1
2022-09-24T05:18:33.172Z,45.4
2022-09-24T05:23:33.000Z,38.1
2022-09-24T05:28:32.924Z,39.9
2022-09-24T05:33:32.824Z,43.3
2022-09-24T05:38:32.786Z,45.3
2022-09-24T05:43:32.804Z,50.4
2022-09-24T05:48:32.964Z,53.9
2022-09-24T05:53:32.773Z,51.6
2022-09-24T05:58:32.735Z,50.6
2022-09-24T06:03:33.086Z,53.6
2022-09-24T06:13:33.571Z,53.1
2022-09-24T06:18:32.803Z,50.3
2022-09-24T06:23:33.557Z,47.9
2022-09-24T06:28:32.682Z,50.8
2022-09-24T06:33:32.869Z,43.3
2022-09-24T06:38:33.867Z,42.1
2022-09-24T06:43:32.973Z,40.3
2022-09-24T06:48:34.024Z,32.7
2022-09-24T06:53:32.647Z,31.4
2022-09-24T06:58:32.709Z,31.1
2022-09-24T07:03:32.709Z,28.0
2022-09-24T07:08:33.333Z,31.7
2022-09-24T07:13:32.597Z,29.3
2022-09-24T07:18:32.880Z,32.2
2022-09-24T07:23:32.881Z,29.4
2022-09-24T07:28:32.766Z,31.0
2022-09-24T07:33:32.540Z,30.0
2022-09-24T07:38:32.936Z,31.5
2022-09-24T07:43:32.863Z,31.6
2022-09-24T07:48:32.641Z,31.5
2022-09-24T07:53:33.009Z,27.3
2022-09-24T07:58:32.639Z,29.1
2022-09-24T08:03:32.795Z,22.9
2022-09-24T08:08:32.769Z,26.4
2022-09-24T08:13:32.519Z,24.2
2022-09-24T08:18:32.499Z,22.8
2022-09-24T08:23:33.349Z,26.2
2022-09-24T08:28:32.534Z,21.7
2022-09-24T08:33:32.440Z,22.0
2022-09-24T08:38:32.723Z,22.1
2022-09-24T08:43:32.466Z,19.5
2022-09-24T08:48:32.436Z,18.2
2022-09-24T08:53:32.620Z,16.5
2022-09-24T08:58:32.501Z,18.3
2022-09-24T09:03:32.550Z,15.5
2022-09-24T09:08:55.066Z,25.5
2022-09-24T09:13:32.448Z,15.3
2022-09-24T09:18:32.484Z,15.1
2022-09-24T09:23:32.535Z,16.5
2022-09-24T09:28:32.377Z,13.5
2022-09-24T09:33:32.388Z,13.0
2022-09-24T09:38:32.710Z,15.8
2022-09-24T09:43:32.486Z,15.7
2022-09-24T09:48:32.431Z,12.0
2022-09-24T09:53:32.396Z,11.7
2022-09-24T09:58:32.449Z,9.7
2022-09-24T10:03:32.665Z,8.0
2022-09-24T10:08:33.786Z,11.5
2022-09-24T10:13:32.421Z,14.1
2022-09-24T10:18:32.576Z,12.4
2022-09-24T10:23:32.478Z,10.6
2022-09-24T10:28:32.359Z,14.7
2022-09-24T10:33:32.277Z,13.1
2022-09-24T10:38:32.473Z,11.2
2022-09-24T10:43:32.485Z,11.9
2022-09-24T10:48:32.227Z,11.4
2022-09-24T10:53:32.439Z,11.5
2022-09-24T10:58:32.309Z,8.9
2022-09-24T11:03:32.379Z,11.4
2022-09-24T11:08:36.759Z,8.2
2022-09-24T11:13:32.314Z,7.9
2022-09-24T11:18:32.351Z,9.0
2022-09-24T11:23:32.266Z,6.4
2022-09-24T11:33:33.157Z,5.6
2022-09-24T11:38:32.220Z,7.0
2022-09-24T11:43:32.272Z,3.9
2022-09-24T11:48:32.530Z,3.6
2022-09-24T11:53:32.872Z,6.2
2022-09-24T11:58:32.130Z,6.4
2022-09-24T12:03:32.859Z,4.9
2022-09-24T12:08:32.443Z,5.4
2022-09-24T12:13:32.415Z,3.0
2022-09-24T12:18:33.101Z,5.0
2022-09-24T12:23:32.278Z,6.3
2022-09-24T12:28:32.250Z,7.7
2022-09-24T12:33:32.439Z,7.5
2022-09-24T12:38:32.146Z,3.5
2022-09-24T12:48:32.323Z,4.9
2022-09-24T12:53:32.141Z,5.9
2022-09-24T12:58:32.395Z,8.1
2022-09-24T13:03:31.988Z,5.8
2022-09-24T13:08:32.199Z,4.8
2022-09-24T13:13:32.017Z,5.5
2022-09-24T13:18:32.350Z,7.1
2022-09-24T13:23:32.189Z,5.5
2022-09-24T13:28:38.735Z,7.8
2022-09-24T13:33:31.953Z,13.9
2022-09-24T13:38:32.091Z,8.6
2022-09-24T13:43:31.914Z,10.3
2022-09-24T13:48:32.228Z,6.1
2022-09-24T13:53:32.473Z,4.2
2022-09-24T13:58:32.054Z,5.7
2022-09-24T14:03:31.977Z,4.4
2022-09-24T14:08:32.020Z,6.9
2022-09-24T14:13:32.051Z,6.2
2022-09-24T14:18:32.247Z,6.7
2022-09-24T14:23:31.948Z,7.2
2022-09-24T14:28:32.048Z,18.2
2022-09-24T14:33:32.361Z,7.2
2022-09-24T14:38:31.981Z,6.4
2022-09-24T14:43:31.874Z,3.9
2022-09-24T14:48:32.244Z,4.3
2022-09-24T14:53:31.972Z,4.9
2022-09-24T14:58:31.937Z,6.2
2022-09-24T15:03:32.099Z,5.4
2022-09-24T15:08:31.860Z,4.6
2022-09-24T15:13:31.866Z,31.5
2022-09-24T15:18:31.972Z,8.2
2022-09-24T15:23:33.488Z,11.8
2022-09-24T15:28:32.157Z,17.9
2022-09-24T15:33:32.014Z,16.0
2022-09-24T15:38:31.751Z,11.8
2022-09-24T15:43:31.899Z,36.1
2022-09-24T15:48:32.134Z,22.9
2022-09-24T15:53:31.923Z,44.0
2022-09-24T15:58:31.821Z,9.4
2022-09-24T16:03:32.331Z,5.7
2022-09-24T16:08:31.915Z,4.5
2022-09-24T16:13:31.843Z,7.4
2022-09-24T16:18:31.754Z,6.5
2022-09-24T16:23:31.855Z,26.2
2022-09-24T16:28:31.934Z,12.0
2022-09-24T16:33:31.749Z,20.6
2022-09-24T16:38:31.729Z,29.8
2022-09-24T16:43:32.124Z,99.6
2022-09-24T16:48:31.729Z,18.7
2022-09-24T16:53:31.701Z,15.5
2022-09-24T16:58:31.849Z,12.5
2022-09-24T17:03:31.787Z,13.7
2022-09-24T17:08:31.669Z,14.9
2022-09-24T17:13:31.863Z,41.1
2022-09-24T17:18:31.676Z,30.8
2022-09-24T17:23:31.674Z,47.7
2022-09-24T17:28:31.839Z,52.7
2022-09-24T17:33:43.007Z,60.8
2022-09-24T17:38:31.655Z,60.1
2022-09-24T17:43:31.975Z,81.0
2022-09-24T17:48:31.666Z,73.9
2022-09-24T17:53:31.662Z,38.2
2022-09-24T17:58:34.954Z,73.7
2022-09-24T18:03:32.231Z,167.9
2022-09-24T18:08:31.675Z,102.4
2022-09-24T18:13:33.006Z,41.9
2022-09-24T18:18:31.475Z,108.0
2022-09-24T18:23:32.378Z,56.2
2022-09-24T18:28:31.911Z,117.9
2022-09-24T18:33:31.588Z,71.7
2022-09-24T18:38:32.142Z,55.8
2022-09-24T18:43:31.615Z,31.1
2022-09-24T18:48:32.321Z,27.0
2022-09-24T18:53:34.343Z,34.1
2022-09-24T18:58:31.593Z,27.8
2022-09-24T19:03:31.662Z,22.8
2022-09-24T19:08:31.831Z,19.0
2022-09-24T19:13:31.855Z,15.1
2022-09-24T19:18:31.481Z,16.5
2022-09-24T19:23:31.558Z,13.6
2022-09-24T19:28:31.420Z,16.2
2022-09-24T19:33:31.420Z,15.0
2022-09-24T19:38:31.526Z,18.5
2022-09-24T19:43:31.430Z,20.7
2022-09-24T19:48:31.485Z,23.5
2022-09-24T19:53:31.522Z,28.9
2022-09-24T19:58:31.371Z,24.4
2022-09-24T20:03:31.355Z,67.2
2022-09-24T20:08:31.684Z,65.2
2022-09-24T20:13:31.371Z,41.8
2022-09-24T20:18:31.580Z,42.4
2022-09-24T20:23:31.556Z,32.5
2022-09-24T20:28:31.499Z,33.2
2022-09-24T20:33:32.342Z,31.2
2022-09-24T20:38:31.719Z,25.7
2022-09-24T20:43:31.680Z,25.5
2022-09-24T20:48:31.386Z,27.1
2022-09-24T20:53:31.973Z,29.8
2022-09-24T20:58:31.674Z,29.6
2022-09-24T21:03:44.101Z,33.4
2022-09-24T21:08:31.252Z,35.3
2022-09-24T21:13:31.341Z,36.3
2022-09-24T21:18:39.572Z,37.6
2022-09-24T21:23:31.458Z,34.8
2022-09-24T21:28:31.271Z,33.3
2022-09-24T21:33:31.519Z,31.5
2022-09-24T21:38:31.525Z,32.7
2022-09-24T21:43:34.833Z,35.1
2022-09-24T21:48:31.703Z,33.5
2022-09-24T21:53:31.402Z,35.6
2022-09-24T21:58:31.140Z,40.4
2022-09-24T22:03:31.373Z,44.0
2022-09-24T22:08:31.357Z,43.0
2022-09-24T22:13:31.260Z,39.6
2022-09-24T22:18:31.104Z,33.5
2022-09-24T22:23:31.343Z,36.7
2022-09-24T22:28:31.125Z,36.8
2022-09-24T22:33:31.172Z,35.8
2022-09-24T22:38:31.204Z,37.3
2022-09-24T22:43:31.068Z,38.9
2022-09-24T22:48:31.083Z,39.3
2022-09-24T22:53:31.214Z,46.0
2022-09-24T22:58:31.072Z,45.1
2022-09-24T23:03:31.070Z,49.2
2022-09-24T23:08:31.188Z,43.8
2022-09-24T23:13:31.111Z,44.1
2022-09-24T23:18:31.086Z,49.9
2022-09-24T23:23:31.252Z,48.7
2022-09-24T23:28:31.157Z,49.2
2022-09-24T23:33:31.141Z,47.7
2022-09-24T23:38:31.160Z,49.8
2022-09-24T23:43:31.074Z,50.6
2022-09-24T23:48:31.130Z,49.2
2022-09-24T23:53:31.094Z,45.4
2022-09-24T23:58:31.072Z,43.2
